sensor_id;sensor_type;location;lat;lon;timestamp;pressure;altitude;pressure_sealevel;temperature;humidity
78892;BME280;68368;51.728;5.248;2023-09-18T00:00:31;100586.73;;;19.09;99.98
78892;BME280;68368;51.728;5.248;2023-09-18T00:02:33;100576.99;;;19.10;99.96
78892;BME280;68368;51.728;5.248;2023-09-18T00:04:35;100572.45;;;19.11;99.90
78892;BME280;68368;51.728;5.248;2023-09-18T00:06:36;100570.66;;;19.11;99.97
78892;BME280;68368;51.728;5.248;2023-09-18T00:08:39;100563.68;;;19.10;99.86
78892;BME280;68368;51.728;5.248;2023-09-18T00:10:41;100560.87;;;19.09;99.87
78892;BME280;68368;51.728;5.248;2023-09-18T00:12:44;100556.59;;;19.08;99.95
78892;BME280;68368;51.728;5.248;2023-09-18T00:14:48;100551.56;;;19.08;99.96
78892;BME280;68368;51.728;5.248;2023-09-18T00:16:50;100543.82;;;19.08;99.91
78892;BME280;68368;51.728;5.248;2023-09-18T00:18:52;100543.11;;;19.08;99.98
78892;BME280;68368;51.728;5.248;2023-09-18T00:20:57;100548.52;;;19.07;99.91
78892;BME280;68368;51.728;5.248;2023-09-18T00:23:02;100551.77;;;19.07;99.99
78892;BME280;68368;51.728;5.248;2023-09-18T00:25:04;100547.90;;;19.06;99.81
78892;BME280;68368;51.728;5.248;2023-09-18T00:27:06;100552.08;;;19.05;99.98
78892;BME280;68368;51.728;5.248;2023-09-18T00:29:08;100550.52;;;19.04;99.96
78892;BME280;68368;51.728;5.248;2023-09-18T00:31:10;100545.16;;;19.03;99.99
78892;BME280;68368;51.728;5.248;2023-09-18T00:33:11;100529.88;;;19.03;100.00
78892;BME280;68368;51.728;5.248;2023-09-18T00:35:13;100521.61;;;19.03;100.00
78892;BME280;68368;51.728;5.248;2023-09-18T00:37:16;100506.98;;;19.04;100.00
78892;BME280;68368;51.728;5.248;2023-09-18T00:39:17;100504.95;;;19.04;100.00
78892;BME280;68368;51.728;5.248;2023-09-18T00:41:19;100498.98;;;19.05;100.00
78892;BME280;68368;51.728;5.248;2023-09-18T00:43:21;100497.64;;;19.07;100.00
78892;BME280;68368;51.728;5.248;2023-09-18T00:45:23;100500.18;;;19.10;99.98
78892;BME280;68368;51.728;5.248;2023-09-18T00:47:25;100494.19;;;19.11;99.86
78892;BME280;68368;51.728;5.248;2023-09-18T00:49:27;100485.20;;;19.11;99.78
78892;BME280;68368;51.728;5.248;2023-09-18T00:51:29;100484.45;;;19.12;99.84
78892;BME280;68368;51.728;5.248;2023-09-18T00:53:32;100479.52;;;19.13;99.88
78892;BME280;68368;51.728;5.248;2023-09-18T00:55:34;100472.77;;;19.15;99.80
78892;BME280;68368;51.728;5.248;2023-09-18T00:57:38;100467.16;;;19.15;99.69
78892;BME280;68368;51.728;5.248;2023-09-18T00:59:40;100464.21;;;19.17;99.55
78892;BME280;68368;51.728;5.248;2023-09-18T01:01:43;100453.76;;;19.17;99.59
78892;BME280;68368;51.728;5.248;2023-09-18T01:03:46;100451.89;;;19.18;99.36
78892;BME280;68368;51.728;5.248;2023-09-18T01:05:47;100452.02;;;19.19;99.46
78892;BME280;68368;51.728;5.248;2023-09-18T01:07:49;100453.20;;;19.21;99.35
78892;BME280;68368;51.728;5.248;2023-09-18T01:09:52;100448.13;;;19.21;99.18
78892;BME280;68368;51.728;5.248;2023-09-18T01:12:00;100443.05;;;19.22;99.27
78892;BME280;68368;51.728;5.248;2023-09-18T01:14:09;100433.29;;;19.22;99.17
78892;BME280;68368;51.728;5.248;2023-09-18T01:16:17;100423.33;;;19.24;99.00
78892;BME280;68368;51.728;5.248;2023-09-18T01:18:22;100412.67;;;19.25;98.96
78892;BME280;68368;51.728;5.248;2023-09-18T01:20:23;100418.61;;;19.25;98.82
78892;BME280;68368;51.728;5.248;2023-09-18T01:24:33;100420.98;;;19.24;98.77
78892;BME280;68368;51.728;5.248;2023-09-18T01:26:35;100425.48;;;19.24;98.83
78892;BME280;68368;51.728;5.248;2023-09-18T01:28:36;100426.55;;;19.24;98.72
78892;BME280;68368;51.728;5.248;2023-09-18T01:30:38;100421.81;;;19.25;98.75
78892;BME280;68368;51.728;5.248;2023-09-18T01:32:43;100417.84;;;19.26;98.59
78892;BME280;68368;51.728;5.248;2023-09-18T01:34:48;100420.26;;;19.28;98.46
78892;BME280;68368;51.728;5.248;2023-09-18T01:36:50;100421.45;;;19.29;98.32
78892;BME280;68368;51.728;5.248;2023-09-18T01:38:53;100419.30;;;19.29;98.22
78892;BME280;68368;51.728;5.248;2023-09-18T01:40:55;100421.45;;;19.29;98.26
78892;BME280;68368;51.728;5.248;2023-09-18T01:42:58;100421.99;;;19.29;98.33
78892;BME280;68368;51.728;5.248;2023-09-18T01:45:02;100422.23;;;19.28;98.27
78892;BME280;68368;51.728;5.248;2023-09-18T01:47:06;100429.06;;;19.28;98.15
78892;BME280;68368;51.728;5.248;2023-09-18T01:49:09;100433.37;;;19.29;98.07
78892;BME280;68368;51.728;5.248;2023-09-18T01:51:14;100429.59;;;19.28;98.03
78892;BME280;68368;51.728;5.248;2023-09-18T01:53:15;100422.27;;;19.27;98.00
78892;BME280;68368;51.728;5.248;2023-09-18T01:55:18;100424.14;;;19.26;97.96
78892;BME280;68368;51.728;5.248;2023-09-18T01:57:20;100425.02;;;19.26;98.15
78892;BME280;68368;51.728;5.248;2023-09-18T01:59:22;100429.00;;;19.26;98.10
78892;BME280;68368;51.728;5.248;2023-09-18T02:01:24;100428.14;;;19.25;98.30
78892;BME280;68368;51.728;5.248;2023-09-18T02:03:28;100422.10;;;19.23;98.24
78892;BME280;68368;51.728;5.248;2023-09-18T02:05:31;100428.09;;;19.22;98.32
78892;BME280;68368;51.728;5.248;2023-09-18T02:07:32;100431.10;;;19.20;98.36
78892;BME280;68368;51.728;5.248;2023-09-18T02:09:34;100428.61;;;19.19;98.57
78892;BME280;68368;51.728;5.248;2023-09-18T02:11:37;100425.94;;;19.19;98.64
78892;BME280;68368;51.728;5.248;2023-09-18T02:13:39;100420.76;;;19.18;98.68
78892;BME280;68368;51.728;5.248;2023-09-18T02:15:41;100417.17;;;19.17;98.77
78892;BME280;68368;51.728;5.248;2023-09-18T02:17:44;100412.16;;;19.17;98.79
78892;BME280;68368;51.728;5.248;2023-09-18T02:19:46;100413.41;;;19.18;98.69
78892;BME280;68368;51.728;5.248;2023-09-18T02:21:48;100409.65;;;19.17;98.94
78892;BME280;68368;51.728;5.248;2023-09-18T02:23:50;100408.42;;;19.17;98.75
78892;BME280;68368;51.728;5.248;2023-09-18T02:25:57;100403.77;;;19.16;98.91
78892;BME280;68368;51.728;5.248;2023-09-18T02:27:59;100402.73;;;19.15;98.96
78892;BME280;68368;51.728;5.248;2023-09-18T02:30:00;100401.91;;;19.14;98.97
78892;BME280;68368;51.728;5.248;2023-09-18T02:32:03;100395.80;;;19.14;98.93
78892;BME280;68368;51.728;5.248;2023-09-18T02:34:04;100392.39;;;19.13;98.99
78892;BME280;68368;51.728;5.248;2023-09-18T02:36:07;100393.16;;;19.13;99.03
78892;BME280;68368;51.728;5.248;2023-09-18T02:38:08;100389.80;;;19.12;99.10
78892;BME280;68368;51.728;5.248;2023-09-18T02:40:11;100387.27;;;19.12;99.23
78892;BME280;68368;51.728;5.248;2023-09-18T02:42:13;100384.23;;;19.11;99.29
78892;BME280;68368;51.728;5.248;2023-09-18T02:44:15;100374.88;;;19.12;99.53
78892;BME280;68368;51.728;5.248;2023-09-18T02:46:17;100359.58;;;19.11;99.56
78892;BME280;68368;51.728;5.248;2023-09-18T02:48:19;100349.88;;;19.11;99.47
78892;BME280;68368;51.728;5.248;2023-09-18T02:50:21;100338.89;;;19.11;99.48
78892;BME280;68368;51.728;5.248;2023-09-18T02:52:23;100336.74;;;19.11;99.62
78892;BME280;68368;51.728;5.248;2023-09-18T02:54:24;100342.13;;;19.12;99.70
78892;BME280;68368;51.728;5.248;2023-09-18T02:56:28;100345.57;;;19.11;99.53
78892;BME280;68368;51.728;5.248;2023-09-18T02:58:30;100339.14;;;19.10;99.70
78892;BME280;68368;51.728;5.248;2023-09-18T03:00:33;100326.21;;;19.10;99.67
78892;BME280;68368;51.728;5.248;2023-09-18T03:02:35;100314.02;;;19.09;99.69
78892;BME280;68368;51.728;5.248;2023-09-18T03:04:36;100318.73;;;19.09;99.67
78892;BME280;68368;51.728;5.248;2023-09-18T03:06:39;100323.20;;;19.09;99.66
78892;BME280;68368;51.728;5.248;2023-09-18T03:08:41;100324.52;;;19.08;99.62
78892;BME280;68368;51.728;5.248;2023-09-18T03:10:43;100317.70;;;19.07;99.78
78892;BME280;68368;51.728;5.248;2023-09-18T03:12:49;100311.30;;;19.06;99.79
78892;BME280;68368;51.728;5.248;2023-09-18T03:14:51;100298.39;;;19.05;99.99
78892;BME280;68368;51.728;5.248;2023-09-18T03:16:53;100298.73;;;19.06;99.93
78892;BME280;68368;51.728;5.248;2023-09-18T03:18:54;100301.96;;;19.06;99.69
78892;BME280;68368;51.728;5.248;2023-09-18T03:20:59;100312.06;;;19.05;99.81
78892;BME280;68368;51.728;5.248;2023-09-18T03:23:02;100312.25;;;19.05;99.89
78892;BME280;68368;51.728;5.248;2023-09-18T03:25:06;100307.78;;;19.04;99.90
78892;BME280;68368;51.728;5.248;2023-09-18T03:27:08;100308.02;;;19.04;99.92
78892;BME280;68368;51.728;5.248;2023-09-18T03:29:10;100313.76;;;19.04;99.84
78892;BME280;68368;51.728;5.248;2023-09-18T03:31:12;100315.36;;;19.04;99.87
78892;BME280;68368;51.728;5.248;2023-09-18T03:33:13;100329.05;;;19.04;99.80
78892;BME280;68368;51.728;5.248;2023-09-18T03:35:17;100330.85;;;19.04;99.95
78892;BME280;68368;51.728;5.248;2023-09-18T03:37:19;100331.72;;;19.04;99.97
78892;BME280;68368;51.728;5.248;2023-09-18T03:39:21;100321.47;;;19.04;99.85
78892;BME280;68368;51.728;5.248;2023-09-18T03:41:23;100322.73;;;19.04;99.83
78892;BME280;68368;51.728;5.248;2023-09-18T03:43:25;100315.73;;;19.04;99.85
78892;BME280;68368;51.728;5.248;2023-09-18T03:45:27;100311.11;;;19.03;99.84
78892;BME280;68368;51.728;5.248;2023-09-18T03:47:32;100301.58;;;19.03;99.80
78892;BME280;68368;51.728;5.248;2023-09-18T03:49:33;100296.17;;;19.03;99.92
78892;BME280;68368;51.728;5.248;2023-09-18T03:51:35;100278.14;;;19.00;99.86
78892;BME280;68368;51.728;5.248;2023-09-18T03:53:37;100273.71;;;19.06;99.87
78892;BME280;68368;51.728;5.248;2023-09-18T03:55:39;100275.58;;;19.08;99.88
78892;BME280;68368;51.728;5.248;2023-09-18T03:57:42;100279.02;;;19.10;99.88
78892;BME280;68368;51.728;5.248;2023-09-18T03:59:44;100277.36;;;19.12;99.63
78892;BME280;68368;51.728;5.248;2023-09-18T04:01:46;100275.45;;;19.10;99.53
78892;BME280;68368;51.728;5.248;2023-09-18T04:03:47;100269.38;;;19.09;99.73
78892;BME280;68368;51.728;5.248;2023-09-18T04:05:49;100268.19;;;19.08;99.72
78892;BME280;68368;51.728;5.248;2023-09-18T04:07:53;100272.16;;;19.08;99.77
78892;BME280;68368;51.728;5.248;2023-09-18T04:09:55;100299.91;;;19.07;99.76
78892;BME280;68368;51.728;5.248;2023-09-18T04:11:57;100310.83;;;19.05;99.97
78892;BME280;68368;51.728;5.248;2023-09-18T04:13:59;100314.22;;;19.02;100.00
78892;BME280;68368;51.728;5.248;2023-09-18T04:16:01;100306.39;;;19.00;100.00
78892;BME280;68368;51.728;5.248;2023-09-18T04:18:04;100299.76;;;19.00;100.00
78892;BME280;68368;51.728;5.248;2023-09-18T04:20:07;100298.34;;;18.99;100.00
78892;BME280;68368;51.728;5.248;2023-09-18T04:22:11;100301.42;;;18.99;100.00
78892;BME280;68368;51.728;5.248;2023-09-18T04:24:13;100298.71;;;18.99;100.00
78892;BME280;68368;51.728;5.248;2023-09-18T04:26:16;100299.81;;;18.99;100.00
78892;BME280;68368;51.728;5.248;2023-09-18T04:28:19;100300.15;;;18.99;100.00
78892;BME280;68368;51.728;5.248;2023-09-18T04:30:24;100300.34;;;18.99;100.00
78892;BME280;68368;51.728;5.248;2023-09-18T04:32:26;100297.98;;;18.99;100.00
78892;BME280;68368;51.728;5.248;2023-09-18T04:34:28;100295.45;;;19.00;100.00
78892;BME280;68368;51.728;5.248;2023-09-18T04:36:30;100297.98;;;18.99;100.00
78892;BME280;68368;51.728;5.248;2023-09-18T04:38:32;100298.90;;;18.99;100.00
78892;BME280;68368;51.728;5.248;2023-09-18T04:40:34;100284.83;;;19.00;100.00
78892;BME280;68368;51.728;5.248;2023-09-18T04:42:36;100281.30;;;18.98;100.00
78892;BME280;68368;51.728;5.248;2023-09-18T04:44:37;100276.45;;;18.98;100.00
78892;BME280;68368;51.728;5.248;2023-09-18T04:46:39;100272.17;;;18.98;100.00
78892;BME280;68368;51.728;5.248;2023-09-18T04:48:41;100268.79;;;18.97;100.00
78892;BME280;68368;51.728;5.248;2023-09-18T04:50:43;100259.73;;;18.95;100.00
78892;BME280;68368;51.728;5.248;2023-09-18T04:52:45;100250.66;;;18.93;100.00
78892;BME280;68368;51.728;5.248;2023-09-18T04:54:47;100242.50;;;18.91;100.00
78892;BME280;68368;51.728;5.248;2023-09-18T04:56:49;100242.40;;;18.90;100.00
78892;BME280;68368;51.728;5.248;2023-09-18T04:58:51;100242.16;;;18.87;100.00
78892;BME280;68368;51.728;5.248;2023-09-18T05:00:56;100224.75;;;18.83;100.00
78892;BME280;68368;51.728;5.248;2023-09-18T05:03:00;100224.86;;;18.81;100.00
78892;BME280;68368;51.728;5.248;2023-09-18T05:05:02;100226.52;;;18.77;100.00
78892;BME280;68368;51.728;5.248;2023-09-18T05:07:06;100219.33;;;18.73;100.00
78892;BME280;68368;51.728;5.248;2023-09-18T05:09:08;100218.05;;;18.70;100.00
78892;BME280;68368;51.728;5.248;2023-09-18T05:11:09;100215.13;;;18.67;100.00
78892;BME280;68368;51.728;5.248;2023-09-18T05:13:12;100213.48;;;18.65;100.00
78892;BME280;68368;51.728;5.248;2023-09-18T05:15:14;100215.90;;;18.63;100.00
78892;BME280;68368;51.728;5.248;2023-09-18T05:17:17;100217.83;;;18.61;100.00
78892;BME280;68368;51.728;5.248;2023-09-18T05:19:19;100215.61;;;18.59;100.00
78892;BME280;68368;51.728;5.248;2023-09-18T05:21:21;100221.48;;;18.56;100.00
78892;BME280;68368;51.728;5.248;2023-09-18T05:23:23;100221.61;;;18.54;100.00
78892;BME280;68368;51.728;5.248;2023-09-18T05:25:26;100226.48;;;18.53;100.00
78892;BME280;68368;51.728;5.248;2023-09-18T05:27:28;100228.95;;;18.51;100.00
78892;BME280;68368;51.728;5.248;2023-09-18T05:29:29;100237.21;;;18.51;100.00
78892;BME280;68368;51.728;5.248;2023-09-18T05:31:32;100242.45;;;18.51;100.00
78892;BME280;68368;51.728;5.248;2023-09-18T05:33:34;100248.95;;;18.50;100.00
78892;BME280;68368;51.728;5.248;2023-09-18T05:35:39;100253.27;;;18.50;100.00
78892;BME280;68368;51.728;5.248;2023-09-18T05:37:42;100258.88;;;18.49;100.00
78892;BME280;68368;51.728;5.248;2023-09-18T05:39:44;100253.10;;;18.50;100.00
78892;BME280;68368;51.728;5.248;2023-09-18T05:41:46;100252.86;;;18.51;100.00
78892;BME280;68368;51.728;5.248;2023-09-18T05:43:48;100250.14;;;18.52;100.00
78892;BME280;68368;51.728;5.248;2023-09-18T05:45:49;100251.53;;;18.52;100.00
78892;BME280;68368;51.728;5.248;2023-09-18T05:47:53;100251.67;;;18.53;100.00
78892;BME280;68368;51.728;5.248;2023-09-18T05:49:55;100252.30;;;18.54;100.00
78892;BME280;68368;51.728;5.248;2023-09-18T05:51:56;100252.23;;;18.56;100.00
78892;BME280;68368;51.728;5.248;2023-09-18T05:54:00;100257.85;;;18.59;100.00
78892;BME280;68368;51.728;5.248;2023-09-18T05:56:02;100252.63;;;18.59;100.00
78892;BME280;68368;51.728;5.248;2023-09-18T05:58:04;100258.48;;;18.60;100.00
78892;BME280;68368;51.728;5.248;2023-09-18T06:00:08;100270.45;;;18.62;100.00
78892;BME280;68368;51.728;5.248;2023-09-18T06:02:10;100273.38;;;18.64;100.00
78892;BME280;68368;51.728;5.248;2023-09-18T06:04:12;100271.92;;;18.68;100.00
78892;BME280;68368;51.728;5.248;2023-09-18T06:06:14;100277.52;;;18.71;100.00
78892;BME280;68368;51.728;5.248;2023-09-18T06:08:19;100276.16;;;18.73;100.00
78892;BME280;68368;51.728;5.248;2023-09-18T06:10:20;100281.25;;;18.75;100.00
78892;BME280;68368;51.728;5.248;2023-09-18T06:12:23;100280.41;;;18.78;100.00
78892;BME280;68368;51.728;5.248;2023-09-18T06:14:25;100278.29;;;18.81;100.00
78892;BME280;68368;51.728;5.248;2023-09-18T06:16:27;100274.20;;;18.83;100.00
78892;BME280;68368;51.728;5.248;2023-09-18T06:18:28;100276.41;;;18.86;100.00
78892;BME280;68368;51.728;5.248;2023-09-18T06:20:30;100277.56;;;18.88;100.00
78892;BME280;68368;51.728;5.248;2023-09-18T06:22:32;100278.54;;;18.89;100.00
78892;BME280;68368;51.728;5.248;2023-09-18T06:24:34;100274.81;;;18.92;100.00
78892;BME280;68368;51.728;5.248;2023-09-18T06:26:36;100282.80;;;18.94;100.00
78892;BME280;68368;51.728;5.248;2023-09-18T06:28:38;100283.27;;;18.95;100.00
78892;BME280;68368;51.728;5.248;2023-09-18T06:30:40;100279.02;;;18.97;100.00
78892;BME280;68368;51.728;5.248;2023-09-18T06:32:42;100282.79;;;18.97;100.00
78892;BME280;68368;51.728;5.248;2023-09-18T06:34:43;100288.34;;;18.98;100.00
78892;BME280;68368;51.728;5.248;2023-09-18T06:36:45;100285.75;;;18.99;100.00
78892;BME280;68368;51.728;5.248;2023-09-18T06:38:47;100283.16;;;19.01;100.00
78892;BME280;68368;51.728;5.248;2023-09-18T06:40:49;100282.10;;;19.04;100.00
78892;BME280;68368;51.728;5.248;2023-09-18T06:42:51;100289.83;;;19.07;100.00
78892;BME280;68368;51.728;5.248;2023-09-18T06:44:59;100290.22;;;19.13;100.00
78892;BME280;68368;51.728;5.248;2023-09-18T06:47:01;100290.33;;;19.21;100.00
78892;BME280;68368;51.728;5.248;2023-09-18T06:49:03;100294.52;;;19.30;100.00
78892;BME280;68368;51.728;5.248;2023-09-18T06:51:05;100285.85;;;19.40;100.00
78892;BME280;68368;51.728;5.248;2023-09-18T06:53:07;100292.66;;;19.51;99.65
78892;BME280;68368;51.728;5.248;2023-09-18T06:55:09;100296.04;;;19.61;99.09
78892;BME280;68368;51.728;5.248;2023-09-18T06:57:11;100301.88;;;19.70;98.22
78892;BME280;68368;51.728;5.248;2023-09-18T06:59:13;100302.95;;;19.76;97.87
78892;BME280;68368;51.728;5.248;2023-09-18T07:01:15;100309.24;;;19.83;97.26
78892;BME280;68368;51.728;5.248;2023-09-18T07:03:17;100310.98;;;19.90;96.71
78892;BME280;68368;51.728;5.248;2023-09-18T07:05:18;100320.67;;;19.94;96.30
78892;BME280;68368;51.728;5.248;2023-09-18T07:07:20;100324.30;;;19.97;95.43
78892;BME280;68368;51.728;5.248;2023-09-18T07:09:22;100326.23;;;19.98;94.91
78892;BME280;68368;51.728;5.248;2023-09-18T07:11:24;100317.85;;;19.99;94.69
78892;BME280;68368;51.728;5.248;2023-09-18T07:13:26;100312.27;;;20.02;94.15
78892;BME280;68368;51.728;5.248;2023-09-18T07:15:28;100299.02;;;20.04;93.55
78892;BME280;68368;51.728;5.248;2023-09-18T07:17:30;100303.96;;;20.06;93.25
78892;BME280;68368;51.728;5.248;2023-09-18T07:19:31;100310.42;;;20.06;92.90
78892;BME280;68368;51.728;5.248;2023-09-18T07:23:56;100312.20;;;20.09;92.27
78892;BME280;68368;51.728;5.248;2023-09-18T07:26:01;100300.27;;;20.13;92.10
78892;BME280;68368;51.728;5.248;2023-09-18T07:28:04;100306.50;;;20.18;91.63
78892;BME280;68368;51.728;5.248;2023-09-18T07:30:08;100313.52;;;20.18;91.13
78892;BME280;68368;51.728;5.248;2023-09-18T07:32:11;100308.67;;;20.18;91.02
78892;BME280;68368;51.728;5.248;2023-09-18T07:34:13;100304.59;;;20.20;90.96
78892;BME280;68368;51.728;5.248;2023-09-18T07:36:15;100309.13;;;20.25;90.26
78892;BME280;68368;51.728;5.248;2023-09-18T07:38:17;100305.46;;;20.32;90.01
78892;BME280;68368;51.728;5.248;2023-09-18T07:40:19;100311.29;;;20.38;89.29
78892;BME280;68368;51.728;5.248;2023-09-18T07:42:24;100320.41;;;20.42;88.72
78892;BME280;68368;51.728;5.248;2023-09-18T07:44:26;100318.90;;;20.49;88.45
78892;BME280;68368;51.728;5.248;2023-09-18T07:46:28;100324.52;;;20.58;88.13
78892;BME280;68368;51.728;5.248;2023-09-18T07:48:30;100319.65;;;20.64;87.48
78892;BME280;68368;51.728;5.248;2023-09-18T07:50:31;100317.92;;;20.69;87.05
78892;BME280;68368;51.728;5.248;2023-09-18T07:52:33;100315.80;;;20.71;86.45
78892;BME280;68368;51.728;5.248;2023-09-18T07:54:35;100324.47;;;20.74;86.22
78892;BME280;68368;51.728;5.248;2023-09-18T07:56:37;100331.51;;;20.80;86.38
78892;BME280;68368;51.728;5.248;2023-09-18T07:58:39;100332.06;;;20.91;85.75
78892;BME280;68368;51.728;5.248;2023-09-18T08:00:41;100331.09;;;21.04;85.60
78892;BME280;68368;51.728;5.248;2023-09-18T08:02:42;100329.17;;;21.18;85.08
78892;BME280;68368;51.728;5.248;2023-09-18T08:04:44;100336.56;;;21.27;83.69
78892;BME280;68368;51.728;5.248;2023-09-18T08:06:47;100330.65;;;21.35;84.03
78892;BME280;68368;51.728;5.248;2023-09-18T08:08:49;100325.61;;;21.41;83.11
78892;BME280;68368;51.728;5.248;2023-09-18T08:10:52;100327.15;;;21.47;82.88
78892;BME280;68368;51.728;5.248;2023-09-18T08:12:54;100325.03;;;21.55;82.55
78892;BME280;68368;51.728;5.248;2023-09-18T08:14:55;100331.94;;;21.58;82.09
78892;BME280;68368;51.728;5.248;2023-09-18T08:16:58;100335.55;;;21.60;82.23
78892;BME280;68368;51.728;5.248;2023-09-18T08:19:01;100332.54;;;21.62;81.15
78892;BME280;68368;51.728;5.248;2023-09-18T08:21:03;100343.44;;;21.61;80.98
78892;BME280;68368;51.728;5.248;2023-09-18T08:23:05;100344.24;;;21.65;80.46
78892;BME280;68368;51.728;5.248;2023-09-18T08:25:08;100339.65;;;21.72;80.32
78892;BME280;68368;51.728;5.248;2023-09-18T08:27:10;100341.65;;;21.81;80.58
78892;BME280;68368;51.728;5.248;2023-09-18T08:29:13;100341.00;;;21.85;79.92
78892;BME280;68368;51.728;5.248;2023-09-18T08:31:15;100339.10;;;21.86;78.55
78892;BME280;68368;51.728;5.248;2023-09-18T08:33:18;100341.10;;;21.91;78.75
78892;BME280;68368;51.728;5.248;2023-09-18T08:35:20;100341.77;;;21.96;78.41
78892;BME280;68368;51.728;5.248;2023-09-18T08:37:21;100341.95;;;22.04;78.48
78892;BME280;68368;51.728;5.248;2023-09-18T08:39:23;100341.59;;;22.14;78.35
78892;BME280;68368;51.728;5.248;2023-09-18T08:41:28;100342.69;;;22.21;77.60
78892;BME280;68368;51.728;5.248;2023-09-18T08:43:32;100342.34;;;22.28;77.51
78892;BME280;68368;51.728;5.248;2023-09-18T08:45:37;100345.83;;;22.30;76.36
78892;BME280;68368;51.728;5.248;2023-09-18T08:47:42;100345.91;;;22.48;76.48
78892;BME280;68368;51.728;5.248;2023-09-18T08:49:45;100346.09;;;22.67;75.27
78892;BME280;68368;51.728;5.248;2023-09-18T08:51:48;100354.44;;;22.69;75.27
78892;BME280;68368;51.728;5.248;2023-09-18T08:53:51;100358.65;;;22.68;75.18
78892;BME280;68368;51.728;5.248;2023-09-18T08:55:54;100357.81;;;22.85;74.36
78892;BME280;68368;51.728;5.248;2023-09-18T08:57:59;100357.86;;;23.09;73.98
78892;BME280;68368;51.728;5.248;2023-09-18T09:00:01;100355.59;;;23.31;72.37
78892;BME280;68368;51.728;5.248;2023-09-18T09:02:03;100352.79;;;23.57;72.92
78892;BME280;68368;51.728;5.248;2023-09-18T09:04:05;100352.46;;;23.87;71.77
78892;BME280;68368;51.728;5.248;2023-09-18T09:06:08;100350.26;;;24.12;70.78
78892;BME280;68368;51.728;5.248;2023-09-18T09:08:29;100352.41;;;24.34;70.05
78892;BME280;68368;51.728;5.248;2023-09-18T09:10:30;100358.14;;;24.57;67.82
78892;BME280;68368;51.728;5.248;2023-09-18T09:12:57;100352.92;;;24.71;67.56
78892;BME280;68368;51.728;5.248;2023-09-18T09:15:08;100358.55;;;24.87;67.04
78892;BME280;68368;51.728;5.248;2023-09-18T09:17:10;100368.49;;;25.06;66.42
78892;BME280;68368;51.728;5.248;2023-09-18T09:19:28;100371.73;;;25.14;65.27
78892;BME280;68368;51.728;5.248;2023-09-18T09:21:39;100380.09;;;25.30;65.05
78892;BME280;68368;51.728;5.248;2023-09-18T09:23:49;100381.42;;;25.50;63.95
78892;BME280;68368;51.728;5.248;2023-09-18T09:25:51;100385.70;;;25.63;63.38
78892;BME280;68368;51.728;5.248;2023-09-18T09:27:53;100385.33;;;25.76;62.12
78892;BME280;68368;51.728;5.248;2023-09-18T09:30:02;100386.36;;;25.82;61.97
78892;BME280;68368;51.728;5.248;2023-09-18T09:32:21;100392.14;;;25.69;61.31
78892;BME280;68368;51.728;5.248;2023-09-18T09:34:27;100402.95;;;25.35;62.28
78892;BME280;68368;51.728;5.248;2023-09-18T09:36:28;100403.09;;;25.06;62.91
78892;BME280;68368;51.728;5.248;2023-09-18T09:38:32;100406.95;;;24.86;63.51
78892;BME280;68368;51.728;5.248;2023-09-18T09:40:34;100405.53;;;24.66;63.80
78892;BME280;68368;51.728;5.248;2023-09-18T09:42:40;100405.89;;;24.50;64.57
78892;BME280;68368;51.728;5.248;2023-09-18T09:44:45;100409.42;;;24.36;64.49
78892;BME280;68368;51.728;5.248;2023-09-18T09:46:47;100402.73;;;24.21;65.06
78892;BME280;68368;51.728;5.248;2023-09-18T09:48:59;100408.41;;;24.05;65.84
78892;BME280;68368;51.728;5.248;2023-09-18T09:51:02;100406.75;;;23.88;66.32
78892;BME280;68368;51.728;5.248;2023-09-18T09:53:04;100412.30;;;23.77;67.03
78892;BME280;68368;51.728;5.248;2023-09-18T09:55:18;100406.36;;;23.65;67.37
78892;BME280;68368;51.728;5.248;2023-09-18T09:57:20;100413.20;;;23.51;67.58
78892;BME280;68368;51.728;5.248;2023-09-18T09:59:22;100410.80;;;23.34;67.73
78892;BME280;68368;51.728;5.248;2023-09-18T10:01:25;100409.77;;;23.23;68.24
78892;BME280;68368;51.728;5.248;2023-09-18T10:03:28;100413.48;;;23.16;68.90
78892;BME280;68368;51.728;5.248;2023-09-18T10:05:32;100402.94;;;23.12;68.47
78892;BME280;68368;51.728;5.248;2023-09-18T10:07:34;100408.83;;;23.05;68.90
78892;BME280;68368;51.728;5.248;2023-09-18T10:09:39;100409.85;;;23.03;69.49
78892;BME280;68368;51.728;5.248;2023-09-18T10:11:44;100416.01;;;23.00;69.45
78892;BME280;68368;51.728;5.248;2023-09-18T10:13:54;100419.14;;;22.89;69.90
78892;BME280;68368;51.728;5.248;2023-09-18T10:15:58;100420.05;;;22.75;70.19
78892;BME280;68368;51.728;5.248;2023-09-18T10:18:03;100428.23;;;22.61;70.48
78892;BME280;68368;51.728;5.248;2023-09-18T10:20:08;100426.93;;;22.51;71.34
78892;BME280;68368;51.728;5.248;2023-09-18T10:22:21;100429.70;;;22.42;71.17
78892;BME280;68368;51.728;5.248;2023-09-18T10:24:28;100433.21;;;22.29;71.73
78892;BME280;68368;51.728;5.248;2023-09-18T10:26:30;100438.81;;;22.16;72.42
78892;BME280;68368;51.728;5.248;2023-09-18T10:28:34;100438.88;;;22.00;72.27
78892;BME280;68368;51.728;5.248;2023-09-18T10:30:37;100441.31;;;21.90;72.67
78892;BME280;68368;51.728;5.248;2023-09-18T10:32:40;100444.70;;;21.83;72.97
78892;BME280;68368;51.728;5.248;2023-09-18T10:34:44;100451.44;;;21.76;73.34
78892;BME280;68368;51.728;5.248;2023-09-18T10:36:48;100455.16;;;21.72;74.01
78892;BME280;68368;51.728;5.248;2023-09-18T10:38:50;100451.54;;;21.66;74.48
78892;BME280;68368;51.728;5.248;2023-09-18T10:40:53;100445.63;;;21.59;74.86
78892;BME280;68368;51.728;5.248;2023-09-18T10:42:56;100445.77;;;21.54;75.18
78892;BME280;68368;51.728;5.248;2023-09-18T10:44:59;100439.22;;;21.52;75.14